Ankara, Turkey
Current Conditions -  °F | °C
As of 3:20 PM on Thursday 23 Oct 2014 (Local Time) from LTAC Reporting Station
Broken Clouds Broken Clouds  
Wind Chill: 64°   Ceiling: 10000
Heat Index: 64°   Visibility: 6mi
Dew Point: 43°   Wind: 8mph
Humidity: 45%   Direction: 210°SSW
Pressure: 29.91"   Gusts: NA
Location:  39.93°N, 32.85°E
Report Text: LTAC 231220Z 21007KT 9999 SCT040 BKN100 18/06 Q1013 NOSIG
Loading
Personal Weather Stations






























Interactive Weather Map
Tropical Storm Tracking
New forecast layout! Learn more

10-Day Weather Forecast

Advertisements
Track Severe Weather on mobile